BEL8QB EBBR-EDDF
Flight info
| Callsign | BEL8QB |
|---|---|
| Flight time | 0h 36m |
| Altitude | 23000 |
| Route | SPI7L SPI T180 NIVNU T847 IMCOM IMCOM1A |
| Aircraft | A333/H-SDE3GHIJ2J3J5M1RVWXY/LB2D1 |
Departure
| Time | 2026-04-15 16:01 |
|---|---|
| Airport | Brussels Airport (EBBR) |
Arrival
| Time | 2026-04-15 16:37 |
|---|---|
| Airport | Frankfurt Main Airport (EDDF) |
| Time | Latitude | Longitude | Altitude | Speed | Heading |
|---|---|---|---|---|---|
| 2026-04-15 15:42 | 50.90432 | 4.49116 | 138 ft | 0 kts | 301° |
| 2026-04-15 15:45 | 50.90431 | 4.49116 | 138 ft | 0 kts | 301° |
| 2026-04-15 15:48 | 50.90431 | 4.49117 | 138 ft | 0 kts | 301° |
| 2026-04-15 15:54 | 50.90422 | 4.49142 | 139 ft | 4 kts | 302° |
| 2026-04-15 15:54 | 50.90406 | 4.49174 | 139 ft | 4 kts | 331° |
| 2026-04-15 15:54 | 50.90386 | 4.49183 | 140 ft | 4 kts | 2° |
| 2026-04-15 15:55 | 50.90363 | 4.49171 | 140 ft | 4 kts | 47° |
| 2026-04-15 15:55 | 50.90348 | 4.49136 | 141 ft | 4 kts | 65° |
| 2026-04-15 15:55 | 50.90345 | 4.49126 | 141 ft | 3 kts | 65° |
| 2026-04-15 15:57 | 50.90352 | 4.49151 | 141 ft | 5 kts | 65° |
| 2026-04-15 15:58 | 50.90374 | 4.49226 | 140 ft | 11 kts | 65° |
| 2026-04-15 15:58 | 50.90413 | 4.49358 | 138 ft | 15 kts | 65° |
| 2026-04-15 15:58 | 50.90463 | 4.49531 | 138 ft | 18 kts | 66° |
| 2026-04-15 15:58 | 50.90560 | 4.49635 | 138 ft | 19 kts | 13° |
| 2026-04-15 15:59 | 50.90700 | 4.49692 | 137 ft | 22 kts | 14° |
| 2026-04-15 15:59 | 50.90831 | 4.49746 | 130 ft | 18 kts | 15° |
| 2026-04-15 15:59 | 50.90963 | 4.49836 | 124 ft | 23 kts | 37° |
| 2026-04-15 15:59 | 50.91069 | 4.49984 | 122 ft | 17 kts | 58° |
| 2026-04-15 16:00 | 50.91067 | 4.50101 | 129 ft | 6 kts | 130° |
| 2026-04-15 16:00 | 50.91028 | 4.50098 | 124 ft | 7 kts | 196° |
| 2026-04-15 16:00 | 50.90841 | 4.50017 | 131 ft | 60 kts | 194° |
| 2026-04-15 16:00 | 50.90206 | 4.49760 | 140 ft | 127 kts | 194° |
| 2026-04-15 16:01 | 50.89209 | 4.49355 | 631 ft | 153 kts | 195° |
| 2026-04-15 16:01 | 50.88158 | 4.49095 | 1594 ft | 158 kts | 179° |
| 2026-04-15 16:01 | 50.87125 | 4.50016 | 2219 ft | 192 kts | 139° |
| 2026-04-15 16:01 | 50.86245 | 4.51844 | 2702 ft | 227 kts | 130° |
| 2026-04-15 16:02 | 50.85294 | 4.54007 | 3319 ft | 248 kts | 130° |
| 2026-04-15 16:02 | 50.84265 | 4.56248 | 4234 ft | 255 kts | 131° |
| 2026-04-15 16:02 | 50.83179 | 4.58514 | 5192 ft | 261 kts | 131° |
| 2026-04-15 16:02 | 50.82045 | 4.60816 | 6121 ft | 270 kts | 132° |
| 2026-04-15 16:03 | 50.80874 | 4.63147 | 7042 ft | 278 kts | 133° |
| 2026-04-15 16:03 | 50.79812 | 4.65739 | 8026 ft | 287 kts | 115° |
| 2026-04-15 16:03 | 50.79172 | 4.68753 | 9062 ft | 291 kts | 110° |
| 2026-04-15 16:03 | 50.78562 | 4.71822 | 10070 ft | 296 kts | 109° |
| 2026-04-15 16:04 | 50.77938 | 4.75000 | 15652 ft | 314 kts | 113° |
| 2026-04-15 16:04 | 50.77086 | 4.78319 | 15846 ft | 337 kts | 117° |
| 2026-04-15 16:04 | 50.76084 | 4.81794 | 16169 ft | 357 kts | 118° |
| 2026-04-15 16:04 | 50.75004 | 4.85430 | 16502 ft | 375 kts | 118° |
| 2026-04-15 16:05 | 50.73859 | 4.89244 | 16872 ft | 391 kts | 118° |
| 2026-04-15 16:05 | 50.72678 | 4.93167 | 17445 ft | 400 kts | 118° |
| 2026-04-15 16:05 | 50.71474 | 4.97156 | 18153 ft | 405 kts | 118° |
| 2026-04-15 16:05 | 50.70253 | 5.01191 | 18796 ft | 410 kts | 118° |
| 2026-04-15 16:06 | 50.69015 | 5.05276 | 19434 ft | 414 kts | 118° |
| 2026-04-15 16:06 | 50.67765 | 5.09390 | 20054 ft | 418 kts | 118° |
| 2026-04-15 16:06 | 50.66506 | 5.13526 | 20663 ft | 421 kts | 119° |
| 2026-04-15 16:06 | 50.65228 | 5.17713 | 21222 ft | 426 kts | 118° |
| 2026-04-15 16:07 | 50.63933 | 5.21951 | 21809 ft | 430 kts | 118° |
| 2026-04-15 16:07 | 50.62631 | 5.26203 | 22396 ft | 433 kts | 119° |
| 2026-04-15 16:07 | 50.59986 | 5.34817 | 23139 ft | 443 kts | 119° |
| 2026-04-15 16:08 | 50.58621 | 5.39243 | 23150 ft | 455 kts | 119° |
| 2026-04-15 16:08 | 50.57233 | 5.43744 | 23150 ft | 458 kts | 119° |
| 2026-04-15 16:08 | 50.55839 | 5.48263 | 23153 ft | 459 kts | 119° |
| 2026-04-15 16:08 | 50.54461 | 5.52717 | 23155 ft | 459 kts | 119° |
| 2026-04-15 16:09 | 50.53065 | 5.57224 | 23155 ft | 459 kts | 119° |
| 2026-04-15 16:09 | 50.51715 | 5.61766 | 23152 ft | 460 kts | 115° |
| 2026-04-15 16:09 | 50.50606 | 5.66507 | 23151 ft | 462 kts | 111° |
| 2026-04-15 16:09 | 50.49643 | 5.71325 | 23154 ft | 463 kts | 109° |
| 2026-04-15 16:10 | 50.48749 | 5.76193 | 23157 ft | 464 kts | 108° |
| 2026-04-15 16:10 | 50.47880 | 5.81071 | 23156 ft | 464 kts | 108° |
| 2026-04-15 16:10 | 50.47010 | 5.85942 | 23156 ft | 464 kts | 108° |
| 2026-04-15 16:10 | 50.46126 | 5.90813 | 23156 ft | 464 kts | 108° |
| 2026-04-15 16:11 | 50.45231 | 5.95654 | 23157 ft | 463 kts | 109° |
| 2026-04-15 16:11 | 50.44320 | 6.00516 | 23159 ft | 463 kts | 109° |
| 2026-04-15 16:11 | 50.43402 | 6.05364 | 23156 ft | 464 kts | 108° |
| 2026-04-15 16:11 | 50.42479 | 6.10210 | 23159 ft | 464 kts | 108° |
| 2026-04-15 16:12 | 50.41556 | 6.15039 | 23159 ft | 464 kts | 108° |
| 2026-04-15 16:12 | 50.40625 | 6.19898 | 23159 ft | 464 kts | 108° |
| 2026-04-15 16:12 | 50.39698 | 6.24726 | 23158 ft | 464 kts | 108° |
| 2026-04-15 16:12 | 50.38766 | 6.29570 | 23155 ft | 464 kts | 108° |
| 2026-04-15 16:13 | 50.37833 | 6.34411 | 23153 ft | 464 kts | 108° |
| 2026-04-15 16:13 | 50.36920 | 6.39257 | 23142 ft | 465 kts | 105° |
| 2026-04-15 16:13 | 50.36342 | 6.44248 | 23155 ft | 466 kts | 99° |
| 2026-04-15 16:13 | 50.35921 | 6.49276 | 23149 ft | 466 kts | 97° |
| 2026-04-15 16:14 | 50.35570 | 6.54310 | 23156 ft | 465 kts | 97° |
| 2026-04-15 16:14 | 50.35255 | 6.59345 | 23153 ft | 465 kts | 96° |
| 2026-04-15 16:14 | 50.34952 | 6.64385 | 23155 ft | 465 kts | 96° |
| 2026-04-15 16:14 | 50.34648 | 6.69417 | 23154 ft | 465 kts | 96° |
| 2026-04-15 16:15 | 50.34338 | 6.74449 | 23159 ft | 465 kts | 96° |
| 2026-04-15 16:15 | 50.34032 | 6.79422 | 23156 ft | 465 kts | 96° |
| 2026-04-15 16:15 | 50.33630 | 6.84505 | 23158 ft | 464 kts | 102° |
| 2026-04-15 16:15 | 50.32677 | 6.89309 | 23163 ft | 462 kts | 114° |
| 2026-04-15 16:16 | 50.31393 | 6.93835 | 23050 ft | 461 kts | 116° |
| 2026-04-15 16:16 | 50.30037 | 6.98353 | 22394 ft | 457 kts | 117° |
| 2026-04-15 16:16 | 50.28688 | 7.02819 | 21739 ft | 451 kts | 117° |
| 2026-04-15 16:16 | 50.27350 | 7.07260 | 21139 ft | 450 kts | 116° |
| 2026-04-15 16:17 | 50.26022 | 7.11677 | 20535 ft | 448 kts | 116° |
| 2026-04-15 16:17 | 50.24702 | 7.16069 | 19948 ft | 444 kts | 116° |
| 2026-04-15 16:17 | 50.23393 | 7.20424 | 19360 ft | 441 kts | 116° |
| 2026-04-15 16:17 | 50.22092 | 7.24747 | 18775 ft | 437 kts | 117° |
| 2026-04-15 16:18 | 50.20801 | 7.29033 | 18151 ft | 434 kts | 117° |
| 2026-04-15 16:18 | 50.19556 | 7.33297 | 17552 ft | 430 kts | 114° |
| 2026-04-15 16:18 | 50.18481 | 7.37627 | 16963 ft | 426 kts | 112° |
| 2026-04-15 16:18 | 50.17467 | 7.41906 | 16436 ft | 416 kts | 111° |
| 2026-04-15 16:19 | 50.16468 | 7.46132 | 15907 ft | 414 kts | 111° |
| 2026-04-15 16:19 | 50.15472 | 7.50323 | 15352 ft | 412 kts | 111° |
| 2026-04-15 16:19 | 50.14474 | 7.54503 | 14810 ft | 409 kts | 112° |
| 2026-04-15 16:19 | 50.13482 | 7.58644 | 14252 ft | 406 kts | 112° |
| 2026-04-15 16:20 | 50.12497 | 7.62743 | 13700 ft | 402 kts | 112° |
| 2026-04-15 16:20 | 50.11501 | 7.66790 | 13137 ft | 399 kts | 115° |
| 2026-04-15 16:20 | 50.10255 | 7.70565 | 12773 ft | 395 kts | 118° |
| 2026-04-15 16:20 | 50.09436 | 7.74692 | 12503 ft | 395 kts | 97° |
| 2026-04-15 16:21 | 50.09567 | 7.78948 | 12263 ft | 394 kts | 81° |
| 2026-04-15 16:21 | 50.10072 | 7.83081 | 12023 ft | 393 kts | 79° |
| 2026-04-15 16:21 | 50.10613 | 7.87248 | 11760 ft | 392 kts | 79° |
| 2026-04-15 16:21 | 50.11130 | 7.91392 | 11257 ft | 389 kts | 79° |
| 2026-04-15 16:22 | 50.11622 | 7.95523 | 10882 ft | 387 kts | 80° |
| 2026-04-15 16:22 | 50.12098 | 7.99637 | 10408 ft | 384 kts | 80° |
| 2026-04-15 16:22 | 50.12561 | 8.03722 | 10255 ft | 377 kts | 80° |
| 2026-04-15 16:22 | 50.12996 | 8.07593 | 10255 ft | 346 kts | 80° |
| 2026-04-15 16:23 | 50.13388 | 8.11113 | 10131 ft | 315 kts | 80° |
| 2026-04-15 16:23 | 50.13752 | 8.14393 | 9612 ft | 301 kts | 81° |
| 2026-04-15 16:23 | 50.14102 | 8.17568 | 9244 ft | 296 kts | 81° |
| 2026-04-15 16:23 | 50.14450 | 8.20736 | 9169 ft | 296 kts | 81° |
| 2026-04-15 16:24 | 50.14796 | 8.23896 | 9166 ft | 295 kts | 81° |
| 2026-04-15 16:24 | 50.15140 | 8.27047 | 9160 ft | 294 kts | 81° |
| 2026-04-15 16:24 | 50.15483 | 8.30195 | 9163 ft | 295 kts | 81° |
| 2026-04-15 16:24 | 50.15825 | 8.33348 | 9169 ft | 295 kts | 81° |
| 2026-04-15 16:25 | 50.16167 | 8.36504 | 9168 ft | 295 kts | 81° |
| 2026-04-15 16:25 | 50.16509 | 8.39660 | 9168 ft | 295 kts | 81° |
| 2026-04-15 16:25 | 50.16849 | 8.42811 | 9168 ft | 295 kts | 81° |
| 2026-04-15 16:25 | 50.17187 | 8.45961 | 9163 ft | 295 kts | 81° |
| 2026-04-15 16:26 | 50.17526 | 8.49118 | 9161 ft | 295 kts | 81° |
| 2026-04-15 16:26 | 50.17864 | 8.52274 | 9161 ft | 295 kts | 81° |
| 2026-04-15 16:26 | 50.18201 | 8.55438 | 9094 ft | 295 kts | 81° |
| 2026-04-15 16:26 | 50.18537 | 8.58588 | 8782 ft | 293 kts | 81° |
| 2026-04-15 16:27 | 50.18868 | 8.61714 | 8421 ft | 291 kts | 81° |
| 2026-04-15 16:27 | 50.19196 | 8.64814 | 8060 ft | 288 kts | 81° |
| 2026-04-15 16:27 | 50.19517 | 8.67851 | 7697 ft | 286 kts | 82° |
| 2026-04-15 16:27 | 50.19838 | 8.70904 | 7344 ft | 283 kts | 82° |
| 2026-04-15 16:28 | 50.20155 | 8.73922 | 7015 ft | 281 kts | 82° |
| 2026-04-15 16:28 | 50.20469 | 8.76916 | 6653 ft | 279 kts | 82° |
| 2026-04-15 16:28 | 50.20780 | 8.79894 | 6298 ft | 276 kts | 82° |
| 2026-04-15 16:28 | 50.21087 | 8.82843 | 5959 ft | 274 kts | 82° |
| 2026-04-15 16:29 | 50.21397 | 8.85768 | 5581 ft | 272 kts | 81° |
| 2026-04-15 16:29 | 50.21854 | 8.88619 | 5217 ft | 270 kts | 75° |
| 2026-04-15 16:29 | 50.22046 | 8.91488 | 5028 ft | 266 kts | 99° |
| 2026-04-15 16:29 | 50.21370 | 8.94126 | 5008 ft | 263 kts | 127° |
| 2026-04-15 16:30 | 50.19991 | 8.95947 | 5011 ft | 261 kts | 154° |
| 2026-04-15 16:30 | 50.18282 | 8.96875 | 5009 ft | 261 kts | 172° |
| 2026-04-15 16:30 | 50.16503 | 8.96571 | 5003 ft | 256 kts | 203° |
| 2026-04-15 16:30 | 50.15094 | 8.95039 | 5001 ft | 241 kts | 225° |
| 2026-04-15 16:31 | 50.14116 | 8.93013 | 5012 ft | 227 kts | 239° |
| 2026-04-15 16:31 | 50.13508 | 8.90863 | 5007 ft | 215 kts | 248° |
| 2026-04-15 16:31 | 50.13016 | 8.88737 | 5002 ft | 204 kts | 248° |
| 2026-04-15 16:31 | 50.12534 | 8.86674 | 4998 ft | 201 kts | 249° |
| 2026-04-15 16:32 | 50.12065 | 8.84685 | 4916 ft | 192 kts | 248° |
| 2026-04-15 16:32 | 50.11601 | 8.82756 | 4678 ft | 189 kts | 248° |
| 2026-04-15 16:32 | 50.11139 | 8.80828 | 4360 ft | 191 kts | 248° |
| 2026-04-15 16:32 | 50.10675 | 8.78880 | 4023 ft | 193 kts | 248° |
| 2026-04-15 16:33 | 50.10208 | 8.76922 | 3742 ft | 193 kts | 248° |
| 2026-04-15 16:33 | 50.09743 | 8.74972 | 3449 ft | 192 kts | 248° |
| 2026-04-15 16:33 | 50.09280 | 8.73033 | 3174 ft | 190 kts | 248° |
| 2026-04-15 16:33 | 50.08830 | 8.71145 | 2897 ft | 180 kts | 248° |
| 2026-04-15 16:34 | 50.08413 | 8.69401 | 2658 ft | 164 kts | 248° |
| 2026-04-15 16:34 | 50.08034 | 8.67814 | 2417 ft | 150 kts | 247° |
| 2026-04-15 16:34 | 50.07686 | 8.66355 | 2212 ft | 138 kts | 247° |
| 2026-04-15 16:34 | 50.07362 | 8.65001 | 2033 ft | 130 kts | 248° |
| 2026-04-15 16:35 | 50.07050 | 8.63693 | 1851 ft | 129 kts | 248° |
| 2026-04-15 16:35 | 50.06738 | 8.62390 | 1673 ft | 129 kts | 248° |
| 2026-04-15 16:35 | 50.06426 | 8.61085 | 1466 ft | 129 kts | 248° |
| 2026-04-15 16:35 | 50.06115 | 8.59783 | 1292 ft | 128 kts | 248° |
| 2026-04-15 16:36 | 50.05805 | 8.58485 | 1092 ft | 128 kts | 249° |
| 2026-04-15 16:36 | 50.05507 | 8.57190 | 942 ft | 127 kts | 250° |
| 2026-04-15 16:36 | 50.05196 | 8.55901 | 762 ft | 127 kts | 249° |
| 2026-04-15 16:36 | 50.04882 | 8.54619 | 574 ft | 126 kts | 250° |
| 2026-04-15 16:37 | 50.04578 | 8.53344 | 399 ft | 126 kts | 250° |
| 2026-04-15 16:37 | 50.04288 | 8.52146 | 354 ft | 98 kts | 249° |
| 2026-04-15 16:37 | 50.04140 | 8.51572 | 358 ft | 21 kts | 225° |
| 2026-04-15 16:37 | 50.04032 | 8.51440 | 357 ft | 13 kts | 218° |
| 2026-04-15 16:38 | 50.04010 | 8.51413 | 358 ft | 3 kts | 218° |
| 2026-04-15 16:38 | 50.03983 | 8.51383 | 357 ft | 10 kts | 210° |
| 2026-04-15 16:38 | 50.03912 | 8.51399 | 356 ft | 11 kts | 139° |
| 2026-04-15 16:38 | 50.03918 | 8.51506 | 354 ft | 12 kts | 68° |
| 2026-04-15 16:39 | 50.03953 | 8.51650 | 358 ft | 17 kts | 70° |
| 2026-04-15 16:39 | 50.03998 | 8.51839 | 359 ft | 20 kts | 69° |
| 2026-04-15 16:39 | 50.04050 | 8.52053 | 355 ft | 22 kts | 69° |
| 2026-04-15 16:39 | 50.04109 | 8.52291 | 357 ft | 25 kts | 69° |
| 2026-04-15 16:40 | 50.04168 | 8.52550 | 355 ft | 25 kts | 70° |
| 2026-04-15 16:40 | 50.04213 | 8.52736 | 359 ft | 16 kts | 69° |
| 2026-04-15 16:40 | 50.04256 | 8.52911 | 358 ft | 19 kts | 69° |
| 2026-04-15 16:40 | 50.04305 | 8.53112 | 359 ft | 21 kts | 69° |
| 2026-04-15 16:41 | 50.04360 | 8.53337 | 357 ft | 23 kts | 69° |
| 2026-04-15 16:41 | 50.04403 | 8.53593 | 353 ft | 26 kts | 84° |
| 2026-04-15 16:41 | 50.04421 | 8.53879 | 349 ft | 28 kts | 84° |
| 2026-04-15 16:41 | 50.04439 | 8.54169 | 354 ft | 22 kts | 84° |
| 2026-04-15 16:42 | 50.04452 | 8.54409 | 351 ft | 23 kts | 90° |
| 2026-04-15 16:42 | 50.04401 | 8.54654 | 358 ft | 25 kts | 127° |
| 2026-04-15 16:42 | 50.04254 | 8.54807 | 357 ft | 26 kts | 160° |
| 2026-04-15 16:42 | 50.04107 | 8.54889 | 354 ft | 18 kts | 160° |
| 2026-04-15 16:43 | 50.04023 | 8.54948 | 359 ft | 10 kts | 132° |
| 2026-04-15 16:43 | 50.04029 | 8.55060 | 359 ft | 9 kts | 70° |
| 2026-04-15 16:43 | 50.04031 | 8.55067 | 359 ft | 0 kts | 70° |
| 2026-04-15 16:44 | 50.04035 | 8.55087 | 358 ft | 5 kts | 69° |
| 2026-04-15 16:44 | 50.04056 | 8.55175 | 358 ft | 12 kts | 69° |
| 2026-04-15 16:44 | 50.04091 | 8.55321 | 354 ft | 16 kts | 70° |
| 2026-04-15 16:45 | 50.04130 | 8.55483 | 355 ft | 12 kts | 69° |
| 2026-04-15 16:45 | 50.04158 | 8.55606 | 357 ft | 8 kts | 80° |
| 2026-04-15 16:45 | 50.04126 | 8.55653 | 357 ft | 8 kts | 158° |
| 2026-04-15 16:45 | 50.04084 | 8.55678 | 356 ft | 3 kts | 159° |
| 2026-04-15 16:46 | 50.04075 | 8.55683 | 354 ft | 1 kts | 159° |
| 2026-04-15 16:46 | 50.04074 | 8.55684 | 354 ft | 0 kts | 159° |